FLUGWETTER MÜNCHEN AIRPORT

[source: ADDS]
METAR
EDDM 220320Z VRB01KT 1500 1100NW R08L/P2000N R08R/P2000N BCFG BR FEW003 M16/M18 Q1026 TEMPO 0800 FZFG =
TAF
TAF AMD EDDM 220042Z 2200/2306 08003KT 1500 BR FEW005 TEMPO 2200/2210 0500 FZFG VV001 BECMG 2209/2211 3000 BR BKN003 TEMPO 2211/2216 5000 BR SCT003 BECMG 2219/2222 1200 BCFG TEMPO 2220/2306 0600 FZFG VV001 =
SR / SS: 06:53 / 15:58 UTC (Tag 2017-01-22)

QR-Code dieser Seite

QR-Code dieser Seite